Terminal Aerodrome Forecast
Issued by NWS Greer, SC

Home | Current Version | Previous Version | Text Only | Print | Product List | Glossary On
Versions: 1 2 3 4 5 6 7 8 9 10 11 12 13 14 15 16 17 18 19 20 21 22 23 24 25 26 27 28 29 30 31 32 33 34 35 36 37 38 39 40 41 42 43 44 45 46 47 48 49 50
000
FTUS42 KGSP 230540
TAFCLT
TAF
KCLT 230540Z 2306/2412 21005KT P6SM -SHRA FEW025 SCT050 BKN100
      TEMPO 2309/2313 4SM +TSRA BKN025CB
     FM231400 23006KT P6SM -SHRA SCT035 BKN090
     FM231600 29006KT P6SM SHRA SCT019 BKN030 PROB30 2317/2319 2SM
      TSRA BKN009CB
     FM231900 34008G17KT 5SM SHRA BR SCT009 OVC013
     FM232300 05006KT P6SM SCT045 BKN250=

USA.gov is the U.S. government's official web portal to all federal, state and local government web resources and services.